Time;durP1;ratioP1;P1;durP2;ratioP2;P2;SDS_P1;SDS_P2;PMS_P1;PMS_P2;Temp;Humidity;BMP_temperature;BMP_pressure;BME280_temperature;BME280_humidity;BME280_pressure;Samples;Min_cycle;Max_cycle;Signal;HPM_P1;HPM_P2
2022/04/30 00:00:16;;;;;;;21.42;20.13;;;;;;;;;;5052707;28;20791;-58
2022/04/30 00:02:41;;;;;;;25.20;23.80;;;;;;;;;;5054341;28;20090;-58
2022/04/30 00:05:08;;;;;;;21.58;20.38;;;;;;;;;;5051068;28;20040;-58
2022/04/30 00:07:33;;;;;;;21.35;20.05;;;;;;;;;;5050029;28;20037;-58
2022/04/30 00:09:59;;;;;;;23.08;21.77;;;;;;;;;;5052518;28;20025;-58
2022/04/30 00:12:25;;;;;;;22.65;21.15;;;;;;;;;;5052334;28;20750;-58
2022/04/30 00:14:51;;;;;;;22.50;21.27;;;;;;;;;;5061923;28;20538;-58
2022/04/30 00:17:16;;;;;;;21.40;20.17;;;;;;;;;;5053543;28;20033;-58
2022/04/30 00:19:42;;;;;;;21.58;20.30;;;;;;;;;;5052585;28;20035;-58
2022/04/30 00:22:09;;;;;;;21.90;20.60;;;;;;;;;;5052252;28;20040;-58
2022/04/30 00:24:35;;;;;;;23.15;21.75;;;;;;;;;;5050308;28;20144;-59
2022/04/30 00:27:01;;;;;;;20.98;19.70;;;;;;;;;;5051218;28;20047;-58
2022/04/30 00:29:30;;;;;;;21.98;20.77;;;;;;;;;;5052251;28;20029;-58
2022/04/30 00:31:57;;;;;;;23.20;21.90;;;;;;;;;;5052980;28;20029;-58
2022/04/30 00:34:23;;;;;;;20.90;19.70;;;;;;;;;;5054093;28;20540;-58
2022/04/30 00:36:48;;;;;;;21.50;20.30;;;;;;;;;;5049639;28;20064;-59
2022/04/30 00:39:14;;;;;;;18.35;17.23;;;;;;;;;;5053309;28;20443;-60
2022/04/30 00:41:46;;;;;;;20.67;19.45;;;;;;;;;;5054006;28;20032;-61
2022/04/30 00:44:18;;;;;;;18.13;17.05;;;;;;;;;;5051138;28;20032;-60
2022/04/30 00:46:43;;;;;;;22.58;20.98;;;;;;;;;;5053352;28;20608;-60
2022/04/30 00:49:09;;;;;;;21.58;20.15;;;;;;;;;;5050735;28;20037;-60
2022/04/30 00:51:38;;;;;;;22.50;21.10;;;;;;;;;;5051303;28;20033;-60
2022/04/30 00:54:06;;;;;;;21.05;19.60;;;;;;;;;;5055483;28;20032;-60
2022/04/30 00:56:44;;;;;;;19.73;18.63;;;;;;;;;;5051700;28;20111;-60
2022/04/30 00:59:11;;;;;;;20.38;19.25;;;;;;;;;;5050355;28;20055;-59
2022/04/30 01:01:37;;;;;;;17.80;16.70;;;;;;;;;;5055514;28;20052;-60
2022/04/30 01:04:05;;;;;;;17.42;16.33;;;;;;;;;;5052497;28;20450;-60
2022/04/30 01:06:52;;;;;;;17.73;16.73;;;;;;;;;;5049936;28;20394;-60
2022/04/30 01:09:21;;;;;;;16.10;15.18;;;;;;;;;;5053225;28;20124;-60
2022/04/30 01:11:57;;;;;;;18.40;17.30;;;;;;;;;;5053433;28;20033;-60
2022/04/30 01:14:27;;;;;;;18.77;17.63;;;;;;;;;;5060117;28;20059;-60
2022/04/30 01:16:56;;;;;;;19.50;18.15;;;;;;;;;;5053158;28;20540;-60
2022/04/30 01:19:23;;;;;;;18.98;17.65;;;;;;;;;;5061137;28;20025;-60
2022/04/30 01:21:51;;;;;;;17.83;16.83;;;;;;;;;;5061544;28;20504;-60
2022/04/30 01:24:25;;;;;;;15.98;14.82;;;;;;;;;;5054052;28;20078;-59
2022/04/30 01:26:52;;;;;;;13.73;12.82;;;;;;;;;;5051449;28;20040;-60
2022/04/30 01:29:19;;;;;;;15.60;14.68;;;;;;;;;;5051081;28;20033;-60
2022/04/30 01:37:23;;;;;;;11.07;10.38;;;;;;;;;;5052390;28;20135;-60
2022/04/30 01:39:52;;;;;;;9.63;8.93;;;;;;;;;;5054171;28;20367;-59
2022/04/30 01:42:18;;;;;;;10.02;9.15;;;;;;;;;;5067768;28;20032;-60
2022/04/30 01:44:46;;;;;;;9.18;8.45;;;;;;;;;;5050402;28;20086;-60
2022/04/30 01:47:17;;;;;;;7.95;7.35;;;;;;;;;;5051980;28;20098;-60
2022/04/30 01:49:43;;;;;;;8.95;8.10;;;;;;;;;;5056317;28;20066;-60
2022/04/30 01:52:09;;;;;;;8.38;7.78;;;;;;;;;;5057009;28;20509;-60
2022/04/30 01:54:35;;;;;;;8.60;8.00;;;;;;;;;;5054075;28;20036;-61
2022/04/30 01:57:01;;;;;;;8.18;7.57;;;;;;;;;;5054134;28;20071;-61
2022/04/30 01:59:26;;;;;;;8.52;7.82;;;;;;;;;;5054335;28;20067;-61
2022/04/30 02:01:53;;;;;;;7.82;7.13;;;;;;;;;;5052616;28;20048;-61
2022/04/30 02:04:18;;;;;;;7.60;7.00;;;;;;;;;;5054821;28;20043;-61
2022/04/30 02:06:45;;;;;;;7.30;6.78;;;;;;;;;;5056614;28;20036;-61
2022/04/30 02:09:10;;;;;;;15.48;7.20;;;;;;;;;;5055261;28;20036;-60
2022/04/30 02:11:37;;;;;;;6.72;6.20;;;;;;;;;;5056791;28;20040;-61
2022/04/30 02:14:04;;;;;;;6.32;5.78;;;;;;;;;;5072032;28;20025;-62
2022/04/30 02:16:31;;;;;;;9.90;7.55;;;;;;;;;;5056990;28;20025;-64
2022/04/30 02:18:59;;;;;;;7.10;6.55;;;;;;;;;;5059336;28;20476;-65
2022/04/30 02:21:29;;;;;;;6.63;6.13;;;;;;;;;;5057075;28;20032;-66
2022/04/30 02:23:57;;;;;;;7.28;6.68;;;;;;;;;;5053239;28;20474;-67
2022/04/30 02:26:26;;;;;;;8.38;6.38;;;;;;;;;;5069770;28;20502;-67
2022/04/30 02:28:53;;;;;;;8.52;7.35;;;;;;;;;;5057227;28;20040;-68
2022/04/30 02:31:27;;;;;;;7.18;6.53;;;;;;;;;;5053433;28;20039;-68
2022/04/30 02:33:56;;;;;;;7.45;6.75;;;;;;;;;;5052796;28;20021;-68
2022/04/30 02:36:26;;;;;;;7.00;6.25;;;;;;;;;;5056400;28;20060;-68
2022/04/30 02:38:54;;;;;;;;;;;;;;;;;;5057453;28;20040;-68
2022/04/30 02:41:21;;;;;;;7.32;6.72;;;;;;;;;;5054584;28;19955;-68
2022/04/30 02:43:50;;;;;;;6.82;6.32;;;;;;;;;;5054400;28;20064;-68
2022/04/30 02:46:17;;;;;;;8.52;7.93;;;;;;;;;;5051558;28;20050;-69
2022/04/30 02:48:43;;;;;;;9.65;9.00;;;;;;;;;;5053898;28;20465;-68
2022/04/30 02:51:10;;;;;;;11.02;10.32;;;;;;;;;;5070540;28;20036;-67
2022/04/30 02:53:36;;;;;;;11.75;10.95;;;;;;;;;;5053147;28;20115;-68
2022/04/30 02:56:02;;;;;;;11.52;10.77;;;;;;;;;;5052763;28;20060;-68
2022/04/30 03:01:11;;;;;;;12.02;11.25;;;;;;;;;;5055417;28;20041;-68
2022/04/30 03:03:36;;;;;;;13.48;12.57;;;;;;;;;;5072010;28;20028;-68
2022/04/30 03:06:02;;;;;;;15.25;14.10;;;;;;;;;;5052420;28;20036;-68
2022/04/30 03:08:27;;;;;;;15.13;14.23;;;;;;;;;;5051502;28;20037;-68
2022/04/30 03:10:56;;;;;;;14.48;13.48;;;;;;;;;;5060667;28;20113;-69
2022/04/30 03:13:23;;;;;;;16.08;15.00;;;;;;;;;;5052693;28;20037;-68
2022/04/30 03:15:53;;;;;;;16.75;15.75;;;;;;;;;;5049805;28;20036;-69
2022/04/30 03:23:51;;;;;;;15.85;14.85;;;;;;;;;;5050789;28;20063;-68
2022/04/30 03:26:17;;;;;;;15.65;14.70;;;;;;;;;;5049316;28;20029;-69
2022/04/30 03:28:43;;;;;;;15.52;14.63;;;;;;;;;;5050954;28;20458;-68
2022/04/30 03:31:10;;;;;;;16.45;15.45;;;;;;;;;;5052314;28;20048;-68
2022/04/30 03:33:36;;;;;;;16.98;15.98;;;;;;;;;;5055275;28;20032;-62
2022/04/30 03:36:03;;;;;;;16.30;15.30;;;;;;;;;;5054146;28;20063;-63
2022/04/30 03:38:29;;;;;;;15.68;14.68;;;;;;;;;;5054666;28;20074;-63
2022/04/30 03:40:54;;;;;;;14.15;13.13;;;;;;;;;;5053072;28;20036;-63
2022/04/30 03:43:19;;;;;;;16.15;15.15;;;;;;;;;;5054851;28;20036;-62
2022/04/30 03:45:46;;;;;;;17.77;16.52;;;;;;;;;;5054374;28;20124;-62
2022/04/30 03:48:14;;;;;;;16.65;15.65;;;;;;;;;;5053438;28;20340;-62
2022/04/30 03:50:41;;;;;;;16.40;15.20;;;;;;;;;;5053993;28;20036;-62
2022/04/30 03:53:07;;;;;;;15.45;14.55;;;;;;;;;;5055386;28;20040;-62
2022/04/30 03:55:33;;;;;;;17.23;16.13;;;;;;;;;;5051911;28;20035;-63
2022/04/30 03:57:58;;;;;;;14.73;13.82;;;;;;;;;;5052549;28;20139;-63
2022/04/30 04:00:24;;;;;;;18.20;17.00;;;;;;;;;;5051694;28;20040;-63
2022/04/30 04:02:50;;;;;;;14.68;13.77;;;;;;;;;;5048783;28;20028;-63
2022/04/30 04:05:17;;;;;;;14.90;14.00;;;;;;;;;;5052532;28;20048;-63
2022/04/30 04:07:43;;;;;;;16.33;15.32;;;;;;;;;;5050179;28;20400;-63
2022/04/30 04:10:10;;;;;;;16.83;15.82;;;;;;;;;;5049647;28;20047;-64
2022/04/30 04:12:42;;;;;;;16.23;15.32;;;;;;;;;;5054503;28;20028;-64
2022/04/30 04:18:00;;;;;;;16.83;15.82;;;;;;;;;;5061205;28;20523;-63
2022/04/30 04:20:26;;;;;;;17.45;16.45;;;;;;;;;;5053118;28;20040;-63
2022/04/30 04:22:52;;;;;;;15.77;14.77;;;;;;;;;;5062056;28;20035;-63
2022/04/30 04:28:01;;;;;;;15.95;15.00;;;;;;;;;;5052342;28;20029;-61
2022/04/30 04:30:29;;;;;;;14.85;13.85;;;;;;;;;;5053629;28;20048;-61
2022/04/30 04:32:55;;;;;;;15.25;14.15;;;;;;;;;;5051898;28;20059;-61
2022/04/30 04:35:21;;;;;;;15.48;14.48;;;;;;;;;;5053037;28;20033;-61
2022/04/30 04:37:47;;;;;;;14.30;13.43;;;;;;;;;;5051639;28;20043;-61
2022/04/30 04:40:14;;;;;;;15.55;14.50;;;;;;;;;;5055063;28;20040;-62
2022/04/30 04:42:41;;;;;;;15.45;14.55;;;;;;;;;;5053428;28;20644;-62
2022/04/30 04:45:08;;;;;;;14.27;13.35;;;;;;;;;;5062234;28;20491;-62
2022/04/30 04:47:41;;;;;;;13.80;13.00;;;;;;;;;;5061866;28;20385;-62
2022/04/30 04:50:12;;;;;;;17.88;16.77;;;;;;;;;;5052965;28;20043;-61
2022/04/30 04:52:37;;;;;;;17.30;16.30;;;;;;;;;;5049932;28;20357;-61
2022/04/30 04:55:03;;;;;;;15.63;14.68;;;;;;;;;;5050292;28;20035;-61
2022/04/30 04:57:28;;;;;;;15.63;14.63;;;;;;;;;;5054371;28;20032;-61
2022/04/30 04:59:54;;;;;;;16.23;15.23;;;;;;;;;;5053398;28;20534;-60
2022/04/30 05:02:20;;;;;;;15.20;14.30;;;;;;;;;;5057517;28;20029;-60
2022/04/30 05:04:46;;;;;;;14.88;13.88;;;;;;;;;;5054272;28;20131;-60
2022/04/30 05:07:11;;;;;;;15.23;14.23;;;;;;;;;;5053421;28;20573;-60
2022/04/30 05:09:37;;;;;;;15.23;14.32;;;;;;;;;;5051233;28;20437;-59
2022/04/30 05:12:02;;;;;;;16.52;15.43;;;;;;;;;;5053296;28;20029;-60
2022/04/30 05:14:32;;;;;;;17.58;16.38;;;;;;;;;;5054904;28;20047;-60
2022/04/30 05:16:59;;;;;;;17.13;16.02;;;;;;;;;;5070557;28;20421;-59
2022/04/30 05:19:24;;;;;;;16.55;15.55;;;;;;;;;;5053351;28;20090;-59
2022/04/30 05:21:50;;;;;;;17.10;16.00;;;;;;;;;;5049511;28;20036;-59
2022/04/30 05:24:15;;;;;;;14.80;13.80;;;;;;;;;;5057462;28;20493;-59
2022/04/30 05:26:41;;;;;;;14.13;13.20;;;;;;;;;;5057595;28;20044;-59
2022/04/30 05:29:06;;;;;;;15.63;14.52;;;;;;;;;;5056997;28;20040;-60
2022/04/30 05:31:32;;;;;;;15.45;14.45;;;;;;;;;;5058834;28;20032;-59
2022/04/30 05:33:57;;;;;;;16.90;15.80;;;;;;;;;;5056456;28;20111;-58
2022/04/30 05:36:22;;;;;;;17.10;16.10;;;;;;;;;;5063234;28;20086;-58
2022/04/30 05:38:48;;;;;;;15.38;14.38;;;;;;;;;;5055679;28;20021;-58
2022/04/30 05:41:13;;;;;;;16.45;15.50;;;;;;;;;;5057213;28;20029;-58
2022/04/30 05:43:38;;;;;;;17.10;16.02;;;;;;;;;;5057216;28;20036;-58
2022/04/30 05:46:04;;;;;;;17.08;16.00;;;;;;;;;;5056013;28;20040;-59
2022/04/30 05:48:29;;;;;;;14.10;13.20;;;;;;;;;;5058360;28;20044;-59
2022/04/30 05:50:55;;;;;;;13.07;12.18;;;;;;;;;;5055811;28;20037;-59
2022/04/30 05:53:21;;;;;;;12.23;11.32;;;;;;;;;;5065413;28;20070;-59
2022/04/30 05:55:46;;;;;;;13.32;12.35;;;;;;;;;;5056589;28;20171;-58
2022/04/30 05:58:12;;;;;;;15.63;14.68;;;;;;;;;;5056697;28;20060;-59
2022/04/30 06:00:37;;;;;;;15.50;14.50;;;;;;;;;;5065329;28;20036;-58
2022/04/30 06:03:03;;;;;;;17.77;16.73;;;;;;;;;;5055495;28;20048;-58
2022/04/30 06:05:28;;;;;;;17.33;16.30;;;;;;;;;;5058922;28;20525;-58
2022/04/30 06:07:53;;;;;;;16.20;15.20;;;;;;;;;;5057438;28;20025;-58
2022/04/30 06:10:19;;;;;;;16.63;15.63;;;;;;;;;;5058090;28;20056;-58
2022/04/30 06:12:44;;;;;;;16.52;15.43;;;;;;;;;;5055067;28;20378;-58
2022/04/30 06:15:10;;;;;;;16.65;15.65;;;;;;;;;;5054097;28;20044;-58
2022/04/30 06:17:35;;;;;;;14.40;13.40;;;;;;;;;;5057090;28;20040;-58
2022/04/30 06:20:01;;;;;;;17.05;16.02;;;;;;;;;;5058562;28;20495;-58
2022/04/30 06:22:26;;;;;;;18.20;16.90;;;;;;;;;;5058647;28;20175;-58
2022/04/30 06:24:52;;;;;;;14.40;13.50;;;;;;;;;;5053944;28;20047;-59
2022/04/30 06:27:17;;;;;;;15.18;14.27;;;;;;;;;;5055124;28;20028;-58
2022/04/30 06:29:43;;;;;;;14.48;13.57;;;;;;;;;;5054645;28;20112;-58
2022/04/30 06:32:09;;;;;;;14.27;13.13;;;;;;;;;;5058183;28;20599;-58
2022/04/30 06:34:34;;;;;;;14.98;13.98;;;;;;;;;;5067763;28;20064;-58
2022/04/30 06:37:00;;;;;;;16.35;15.35;;;;;;;;;;5052156;28;20040;-58
2022/04/30 06:39:25;;;;;;;14.95;14.05;;;;;;;;;;5052619;28;20063;-59
2022/04/30 06:41:51;;;;;;;17.65;16.55;;;;;;;;;;5054306;28;20032;-58
2022/04/30 06:44:16;;;;;;;18.17;17.08;;;;;;;;;;5051170;28;20060;-58
2022/04/30 06:46:42;;;;;;;16.70;15.70;;;;;;;;;;5050856;28;20043;-58
2022/04/30 06:49:08;;;;;;;16.25;15.27;;;;;;;;;;5054970;28;20439;-58
2022/04/30 06:51:33;;;;;;;19.30;18.02;;;;;;;;;;5057103;28;20040;-58
2022/04/30 06:59:40;;;;;;;19.13;18.02;;;;;;;;;;5061736;28;20083;-59
2022/04/30 07:02:11;;;;;;;16.52;15.43;;;;;;;;;;5058066;28;20667;-59
2022/04/30 07:04:38;;;;;;;;;;;;;;;;;;5054953;28;20033;-59
2022/04/30 07:07:04;;;;;;;15.20;14.30;;;;;;;;;;5062681;28;19950;-58
2022/04/30 07:09:32;;;;;;;15.80;14.90;;;;;;;;;;5054510;28;20898;-58
2022/04/30 07:11:59;;;;;;;18.15;17.10;;;;;;;;;;5055973;28;20033;-58
2022/04/30 07:14:25;;;;;;;17.13;16.13;;;;;;;;;;5053472;28;20040;-59
2022/04/30 07:16:50;;;;;;;20.95;19.60;;;;;;;;;;5054685;28;20482;-59
2022/04/30 07:19:15;;;;;;;19.00;17.90;;;;;;;;;;5054015;28;20660;-59
2022/04/30 07:21:41;;;;;;;19.52;18.42;;;;;;;;;;5056784;28;20040;-62
2022/04/30 07:24:06;;;;;;;20.73;19.42;;;;;;;;;;5055343;28;20595;-61
2022/04/30 07:26:32;;;;;;;17.85;16.75;;;;;;;;;;5053305;28;20096;-61
2022/04/30 07:28:57;;;;;;;19.98;18.83;;;;;;;;;;5054909;28;20037;-61
2022/04/30 07:31:22;;;;;;;18.20;16.90;;;;;;;;;;5052383;28;20032;-61
2022/04/30 07:33:49;;;;;;;19.63;18.33;;;;;;;;;;5053368;28;20410;-61
2022/04/30 07:36:15;;;;;;;18.48;17.38;;;;;;;;;;5055284;28;20447;-62
2022/04/30 07:38:40;;;;;;;18.73;17.63;;;;;;;;;;5054820;28;20107;-61
2022/04/30 07:41:06;;;;;;;18.13;17.13;;;;;;;;;;5050495;28;20040;-62
2022/04/30 07:43:32;;;;;;;18.27;17.25;;;;;;;;;;5055253;28;20043;-61
2022/04/30 07:45:57;;;;;;;16.20;15.10;;;;;;;;;;5052348;28;20025;-60
2022/04/30 07:48:23;;;;;;;17.75;16.75;;;;;;;;;;5052297;28;20041;-60
2022/04/30 07:50:48;;;;;;;18.25;17.20;;;;;;;;;;5052996;28;20028;-60
2022/04/30 07:53:15;;;;;;;16.98;15.98;;;;;;;;;;5062341;28;20405;-60
2022/04/30 07:55:41;;;;;;;16.92;15.88;;;;;;;;;;5054323;28;20042;-60
2022/04/30 07:58:06;;;;;;;18.30;17.05;;;;;;;;;;5052753;28;20041;-60
2022/04/30 08:00:32;;;;;;;18.48;17.38;;;;;;;;;;5051112;28;20043;-60
2022/04/30 08:02:58;;;;;;;16.05;15.05;;;;;;;;;;5054746;28;20204;-60
2022/04/30 08:05:27;;;;;;;17.73;16.63;;;;;;;;;;5053199;28;20028;-59
2022/04/30 08:07:54;;;;;;;17.70;16.70;;;;;;;;;;5053290;28;20043;-60
2022/04/30 08:10:20;;;;;;;17.63;16.58;;;;;;;;;;5051010;28;20093;-60
2022/04/30 08:12:46;;;;;;;21.33;20.02;;;;;;;;;;5055846;28;20187;-60
2022/04/30 08:15:11;;;;;;;17.27;16.23;;;;;;;;;;5050203;28;20490;-60
2022/04/30 08:17:38;;;;;;;17.00;15.90;;;;;;;;;;5052631;28;20036;-60
2022/04/30 08:20:06;;;;;;;18.27;17.17;;;;;;;;;;5052179;28;20036;-60
2022/04/30 08:22:31;;;;;;;18.10;16.90;;;;;;;;;;5053047;28;20039;-61
2022/04/30 08:24:57;;;;;;;18.08;16.98;;;;;;;;;;5051865;28;20017;-61
2022/04/30 08:27:22;;;;;;;20.92;19.65;;;;;;;;;;5054273;28;20037;-61
2022/04/30 08:29:48;;;;;;;18.80;17.65;;;;;;;;;;5053968;28;20028;-61
2022/04/30 08:32:15;;;;;;;18.45;17.38;;;;;;;;;;5056968;28;20497;-61
2022/04/30 08:34:41;;;;;;;22.33;21.08;;;;;;;;;;5050522;28;20140;-61
2022/04/30 08:37:06;;;;;;;18.92;17.88;;;;;;;;;;5053064;28;20047;-61
2022/04/30 08:39:31;;;;;;;21.17;19.90;;;;;;;;;;5071005;28;20363;-62
2022/04/30 08:41:58;;;;;;;19.10;17.85;;;;;;;;;;5051856;28;20135;-62
2022/04/30 08:44:24;;;;;;;21.15;19.92;;;;;;;;;;5053400;28;20090;-62
2022/04/30 08:46:49;;;;;;;19.67;18.50;;;;;;;;;;5056969;28;20032;-62
2022/04/30 08:49:15;;;;;;;17.98;16.88;;;;;;;;;;5055703;28;20036;-61
2022/04/30 08:51:41;;;;;;;20.13;19.02;;;;;;;;;;5067677;28;20143;-62
2022/04/30 08:54:06;;;;;;;19.60;18.48;;;;;;;;;;5053787;28;20040;-62
2022/04/30 08:56:35;;;;;;;18.65;17.55;;;;;;;;;;5055557;28;20560;-62
2022/04/30 08:59:03;;;;;;;22.27;21.05;;;;;;;;;;5057058;28;20399;-62
2022/04/30 09:01:29;;;;;;;18.85;17.77;;;;;;;;;;5054843;28;20039;-62
2022/04/30 09:03:56;;;;;;;16.25;15.25;;;;;;;;;;5055912;28;20040;-62
2022/04/30 09:06:22;;;;;;;19.35;18.17;;;;;;;;;;5070480;28;20029;-64
2022/04/30 09:08:51;;;;;;;20.70;19.50;;;;;;;;;;5056182;28;20021;-63
2022/04/30 09:11:26;;;;;;;18.27;17.25;;;;;;;;;;5055588;28;20025;-63
2022/04/30 09:13:52;;;;;;;19.15;17.95;;;;;;;;;;5054121;28;20052;-63
2022/04/30 09:16:22;;;;;;;18.65;17.55;;;;;;;;;;5058150;28;20020;-63
2022/04/30 09:18:49;;;;;;;20.55;19.35;;;;;;;;;;5058438;28;20052;-63
2022/04/30 09:21:16;;;;;;;20.10;19.00;;;;;;;;;;5060510;28;20096;-63
2022/04/30 09:23:43;;;;;;;19.35;18.25;;;;;;;;;;5056627;28;20136;-63
2022/04/30 09:26:09;;;;;;;17.33;16.33;;;;;;;;;;5056474;28;20044;-63
2022/04/30 09:28:38;;;;;;;19.63;18.50;;;;;;;;;;5055993;28;20056;-63
2022/04/30 09:31:06;;;;;;;18.23;17.20;;;;;;;;;;5056317;28;20035;-63
2022/04/30 09:33:32;;;;;;;21.10;19.85;;;;;;;;;;5058744;28;20041;-63
2022/04/30 09:38:51;;;;;;;16.10;15.02;;;;;;;;;;5054152;28;20098;-62
2022/04/30 09:41:27;;;;;;;17.80;16.70;;;;;;;;;;5054975;28;20025;-62
2022/04/30 09:44:06;;;;;;;19.33;18.23;;;;;;;;;;5057306;28;20028;-61
2022/04/30 09:46:37;;;;;;;19.23;18.13;;;;;;;;;;5056189;28;20041;-60
2022/04/30 09:54:37;;;;;;;19.50;18.40;;;;;;;;;;5056690;28;20060;-60
2022/04/30 09:57:07;;;;;;;18.80;17.70;;;;;;;;;;5053409;28;20043;-60
2022/04/30 09:59:38;;;;;;;17.27;16.27;;;;;;;;;;5055605;28;20102;-60
2022/04/30 10:02:07;;;;;;;16.58;15.68;;;;;;;;;;5056006;28;20029;-59
2022/04/30 10:04:34;;;;;;;14.50;13.55;;;;;;;;;;5054192;28;20627;-59
2022/04/30 10:07:01;;;;;;;21.35;20.15;;;;;;;;;;5064473;28;20044;-60
2022/04/30 10:10:01;;;;;;;17.02;15.93;;;;;;;;;;5057828;28;20067;-59
2022/04/30 10:12:35;;;;;;;15.90;14.98;;;;;;;;;;5053866;28;20071;-59
2022/04/30 10:15:18;;;;;;;19.55;18.45;;;;;;;;;;5055555;28;20028;-59
2022/04/30 10:17:46;;;;;;;17.25;16.27;;;;;;;;;;5057391;28;20025;-59
2022/04/30 10:20:17;;;;;;;16.88;15.90;;;;;;;;;;5055772;28;20052;-59
2022/04/30 10:22:53;;;;;;;15.52;14.63;;;;;;;;;;5057056;28;20075;-59
2022/04/30 10:25:37;;;;;;;15.10;14.20;;;;;;;;;;5055038;28;20033;-60
2022/04/30 10:28:16;;;;;;;15.55;14.65;;;;;;;;;;5056816;28;20037;-59
2022/04/30 10:30:43;;;;;;;14.57;13.70;;;;;;;;;;5068367;28;20062;-60
2022/04/30 10:33:09;;;;;;;16.90;15.88;;;;;;;;;;5070923;28;20062;-60
2022/04/30 10:35:37;;;;;;;14.52;13.63;;;;;;;;;;5055879;28;20067;-59
2022/04/30 10:38:19;;;;;;;16.65;15.70;;;;;;;;;;5053675;28;20525;-60
2022/04/30 10:40:50;;;;;;;18.20;17.10;;;;;;;;;;5053125;28;20036;-60
2022/04/30 10:43:16;;;;;;;;;;;;;;;;;;5055322;28;20048;-60
2022/04/30 10:45:41;;;;;;;14.57;13.73;;;;;;;;;;5054051;28;20247;-61
2022/04/30 10:48:07;;;;;;;19.00;17.95;;;;;;;;;;5054380;28;20044;-61
2022/04/30 10:50:32;;;;;;;15.60;14.57;;;;;;;;;;5055418;28;20030;-61
2022/04/30 10:53:00;;;;;;;16.17;15.27;;;;;;;;;;5054486;28;20327;-61
2022/04/30 10:55:27;;;;;;;15.63;14.73;;;;;;;;;;5055049;28;20060;-62
2022/04/30 10:57:53;;;;;;;18.50;17.42;;;;;;;;;;5057163;28;20036;-62
2022/04/30 11:00:18;;;;;;;18.08;17.08;;;;;;;;;;5053329;28;20033;-62
2022/04/30 11:02:44;;;;;;;16.30;15.40;;;;;;;;;;5055273;28;20040;-62
2022/04/30 11:05:22;;;;;;;17.23;16.23;;;;;;;;;;5052230;28;20037;-63
2022/04/30 11:07:48;;;;;;;17.63;16.63;;;;;;;;;;5069020;28;20079;-63
2022/04/30 11:10:14;;;;;;;18.42;17.40;;;;;;;;;;5055110;28;20040;-69
2022/04/30 11:12:39;;;;;;;17.95;16.95;;;;;;;;;;5052218;28;20056;-68
2022/04/30 11:15:05;;;;;;;20.25;19.05;;;;;;;;;;5056282;28;20036;-69
2022/04/30 11:17:42;;;;;;;19.40;18.30;;;;;;;;;;5056702;28;20573;-69
2022/04/30 11:20:09;;;;;;;15.75;14.82;;;;;;;;;;5054131;28;20047;-64
2022/04/30 11:22:34;;;;;;;15.23;14.27;;;;;;;;;;5056417;28;20041;-64
2022/04/30 11:25:00;;;;;;;17.55;16.48;;;;;;;;;;5052363;28;20433;-68
2022/04/30 11:27:29;;;;;;;17.50;16.50;;;;;;;;;;5052401;28;20417;-64
2022/04/30 11:29:57;;;;;;;15.85;14.95;;;;;;;;;;5053377;28;20021;-64
2022/04/30 11:32:26;;;;;;;17.60;16.60;;;;;;;;;;5055740;28;20024;-64
2022/04/30 11:35:03;;;;;;;18.02;16.98;;;;;;;;;;5055056;28;20021;-63
2022/04/30 11:37:38;;;;;;;15.60;14.60;;;;;;;;;;5052421;28;20044;-63
2022/04/30 11:40:04;;;;;;;18.52;17.48;;;;;;;;;;5052342;28;20677;-64
2022/04/30 11:42:30;;;;;;;21.50;20.27;;;;;;;;;;5053227;28;20109;-63
2022/04/30 11:44:55;;;;;;;18.67;17.58;;;;;;;;;;5055269;28;20130;-64
2022/04/30 11:47:21;;;;;;;19.20;17.73;;;;;;;;;;5051619;28;20385;-64
2022/04/30 11:49:46;;;;;;;17.05;16.08;;;;;;;;;;5044763;28;20032;-64
2022/04/30 11:52:14;;;;;;;15.02;14.13;;;;;;;;;;5053940;28;20509;-64
2022/04/30 11:54:41;;;;;;;13.90;13.10;;;;;;;;;;5052082;28;20037;-64
2022/04/30 11:57:07;;;;;;;17.08;16.05;;;;;;;;;;5052047;28;20037;-64
2022/04/30 11:59:34;;;;;;;16.92;15.93;;;;;;;;;;5052029;28;20031;-64
2022/04/30 12:02:20;;;;;;;15.30;14.20;;;;;;;;;;5052632;28;20025;-64
2022/04/30 12:04:45;;;;;;;17.48;16.48;;;;;;;;;;5055928;28;20037;-64
2022/04/30 12:07:12;;;;;;;20.00;18.85;;;;;;;;;;5058372;28;20059;-64
2022/04/30 12:09:43;;;;;;;18.85;17.77;;;;;;;;;;5055772;28;20536;-64
2022/04/30 12:12:22;;;;;;;14.27;13.43;;;;;;;;;;5056905;28;20041;-65
2022/04/30 12:14:52;;;;;;;13.05;12.25;;;;;;;;;;5053019;28;20489;-64
2022/04/30 12:17:18;;;;;;;12.68;11.88;;;;;;;;;;5053543;28;20051;-67
2022/04/30 12:25:19;;;;;;;10.43;9.73;;;;;;;;;;5052587;28;20043;-64
2022/04/30 12:27:55;;;;;;;11.35;10.65;;;;;;;;;;5051923;28;20123;-67
2022/04/30 12:30:23;;;;;;;11.38;10.68;;;;;;;;;;5051456;28;20029;-67
2022/04/30 12:33:09;;;;;;;15.48;14.57;;;;;;;;;;5056219;28;20374;-66
2022/04/30 12:35:40;;;;;;;14.05;13.20;;;;;;;;;;5051040;28;20048;-66
2022/04/30 12:38:14;;;;;;;15.35;14.40;;;;;;;;;;5053532;28;20040;-66
2022/04/30 12:40:42;;;;;;;14.10;13.20;;;;;;;;;;5050050;28;20033;-66
2022/04/30 12:43:08;;;;;;;16.08;15.13;;;;;;;;;;5051589;28;20040;-65
2022/04/30 12:45:33;;;;;;;15.00;14.07;;;;;;;;;;5050966;28;20159;-65
2022/04/30 12:48:00;;;;;;;14.55;13.68;;;;;;;;;;5036614;28;20465;-65
2022/04/30 12:50:26;;;;;;;16.10;15.13;;;;;;;;;;5052725;28;20040;-63
2022/04/30 12:52:52;;;;;;;15.10;14.10;;;;;;;;;;5055033;28;20098;-64
2022/04/30 12:55:18;;;;;;;14.98;13.98;;;;;;;;;;5053677;28;20028;-65
2022/04/30 12:57:47;;;;;;;14.18;13.27;;;;;;;;;;5050050;28;20024;-63
2022/04/30 13:00:15;;;;;;;15.88;11.15;;;;;;;;;;5049126;28;20032;-63
2022/04/30 13:02:41;;;;;;;14.23;13.40;;;;;;;;;;5050694;28;20097;-65
2022/04/30 13:05:08;;;;;;;10.10;9.20;;;;;;;;;;5052601;28;20036;-64
2022/04/30 13:07:34;;;;;;;10.55;9.82;;;;;;;;;;5050375;28;20497;-64
2022/04/30 13:15:28;;;;;;;13.90;13.05;;;;;;;;;;5055573;28;20035;-63
2022/04/30 13:17:55;;;;;;;10.63;9.90;;;;;;;;;;5049651;28;20099;-63
2022/04/30 13:20:22;;;;;;;9.88;8.98;;;;;;;;;;5061376;28;20430;-64
2022/04/30 13:22:49;;;;;;;14.13;12.93;;;;;;;;;;5051683;28;20029;-64
2022/04/30 13:25:16;;;;;;;17.48;16.38;;;;;;;;;;5053604;28;20059;-64
2022/04/30 13:27:42;;;;;;;16.83;15.80;;;;;;;;;;5050848;28;20513;-64
2022/04/30 13:30:10;;;;;;;11.25;10.55;;;;;;;;;;5052072;28;20133;-64
2022/04/30 13:32:35;;;;;;;11.40;10.70;;;;;;;;;;5051273;28;20096;-64
2022/04/30 13:35:00;;;;;;;11.23;10.52;;;;;;;;;;5052775;28;20119;-64
2022/04/30 13:37:26;;;;;;;12.27;11.45;;;;;;;;;;5051617;28;20078;-64
2022/04/30 13:39:51;;;;;;;14.52;13.63;;;;;;;;;;5050561;28;20178;-64
2022/04/30 13:42:17;;;;;;;33.08;31.33;;;;;;;;;;5053026;28;20025;-64
2022/04/30 13:44:42;;;;;;;37.15;35.10;;;;;;;;;;5053572;28;20033;-64
2022/04/30 13:47:08;;;;;;;12.23;11.43;;;;;;;;;;5053877;28;20049;-64
2022/04/30 13:49:34;;;;;;;42.88;40.67;;;;;;;;;;5053960;28;20721;-63
2022/04/30 13:52:00;;;;;;;16.88;15.85;;;;;;;;;;5055396;28;20056;-63
2022/04/30 13:54:25;;;;;;;26.35;24.90;;;;;;;;;;5054325;28;20079;-63
2022/04/30 13:56:51;;;;;;;36.03;34.13;;;;;;;;;;5054548;28;20032;-63
2022/04/30 13:59:16;;;;;;;13.88;13.07;;;;;;;;;;5053693;28;20029;-63
2022/04/30 14:01:42;;;;;;;18.60;17.55;;;;;;;;;;5054288;28;20025;-63
2022/04/30 14:04:08;;;;;;;18.38;17.30;;;;;;;;;;5055480;28;20127;-63
2022/04/30 14:06:33;;;;;;;28.88;27.30;;;;;;;;;;5057275;28;20029;-63
2022/04/30 14:08:59;;;;;;;23.40;21.85;;;;;;;;;;5056336;28;20029;-62
2022/04/30 14:11:24;;;;;;;41.42;39.22;;;;;;;;;;5052008;28;20044;-62
2022/04/30 14:16:34;;;;;;;25.95;24.48;;;;;;;;;;5059453;28;20036;-63
2022/04/30 14:19:00;;;;;;;28.33;26.75;;;;;;;;;;5055789;28;20047;-63
2022/04/30 14:21:25;;;;;;;23.33;22.02;;;;;;;;;;5052090;28;20112;-63
2022/04/30 14:23:50;;;;;;;31.83;30.02;;;;;;;;;;5055093;28;20039;-62
2022/04/30 14:26:16;;;;;;;17.52;16.52;;;;;;;;;;5053251;28;20040;-62
2022/04/30 14:28:44;;;;;;;31.10;29.35;;;;;;;;;;5055437;28;20036;-62
2022/04/30 14:31:11;;;;;;;29.90;28.27;;;;;;;;;;5055119;28;20068;-63
2022/04/30 14:33:36;;;;;;;23.60;22.30;;;;;;;;;;5052524;28;20379;-62
2022/04/30 14:36:04;;;;;;;24.35;22.98;;;;;;;;;;5055526;28;20036;-63
2022/04/30 14:38:30;;;;;;;26.77;25.30;;;;;;;;;;5054053;28;20036;-62
2022/04/30 14:40:55;;;;;;;28.50;26.85;;;;;;;;;;5054279;28;20033;-63
2022/04/30 14:43:21;;;;;;;26.63;25.17;;;;;;;;;;5053087;28;20120;-62
2022/04/30 14:45:46;;;;;;;21.65;20.33;;;;;;;;;;5052184;28;20599;-61
2022/04/30 14:48:12;;;;;;;14.25;13.30;;;;;;;;;;5035815;28;20068;-62
2022/04/30 14:50:38;;;;;;;13.07;12.27;;;;;;;;;;5053070;28;20036;-62
2022/04/30 14:53:03;;;;;;;13.15;12.35;;;;;;;;;;5055378;28;20032;-62
2022/04/30 14:55:30;;;;;;;12.52;11.70;;;;;;;;;;5054051;28;20032;-62
2022/04/30 14:57:55;;;;;;;15.15;14.25;;;;;;;;;;5052457;28;20067;-61
2022/04/30 15:00:21;;;;;;;28.67;27.13;;;;;;;;;;5054521;28;20557;-61
2022/04/30 15:02:46;;;;;;;32.42;30.63;;;;;;;;;;5054690;28;20036;-61
2022/04/30 15:05:11;;;;;;;27.98;25.42;;;;;;;;;;5053160;28;20051;-61
2022/04/30 15:07:37;;;;;;;15.20;14.23;;;;;;;;;;5052511;28;20127;-62